KMCC/MCC METAR and TAF weather

Enter ICAO airport designator
Station Type Date Time Source
KMCC METAR 2020/09/21 08:55 UTC NOAA

KMCC 210855Z AUTO 00000KT 10SM SCT042 OVC050 19/09 A2984 RMK AO2


Station Type Date Time Source
KMCC Decoded METAR 2020/09/21 08:55 UTC NOAA

Sacramento, McClellan Airfield Airport, CA, United States (KMCC) 38-40N 121-24W
Sep 21, 2020 - 04:55 AM EDT / 2020.09.21 0855 UTC
Wind: Calm:0
Visibility: 10 mile(s):0
Sky conditions: overcast
Temperature: 66 F (19 C)
Dew Point: 48 F (9 C)
Relative Humidity: 52%
Pressure (altimeter): 29.84 in. Hg (1010 hPa)
ob: KMCC 210855Z AUTO 00000KT 10SM SCT042 OVC050 19/09 A2984 RMK AO2
cycle: 9

Station Type Date Time Source
KMCC TAF 2020/09/21 06:50 UTC NOAA

TAF KMCC 210531Z 2106/2206 14006KT 6SM FU HZ SKC
FM211800 18005KT 6SM FU HZ SKC
FM212000 20007KT P6SM SKC

Example: see airport list